Time;durP1;ratioP1;P1;durP2;ratioP2;P2;SDS_P1;SDS_P2;PMS_P1;PMS_P2;Temp;Humidity;BMP_temperature;BMP_pressure;BME280_temperature;BME280_humidity;BME280_pressure;Samples;Min_cycle;Max_cycle;Signal;HPM_P1;HPM_P2
2021/07/12 00:12:13;;;;;;;8.65;7.95;;;;;;;22.59;73.58;100888.72;4946892;28;102651;-56
2021/07/12 00:14:42;;;;;;;9.40;8.57;;;;;;;22.58;73.66;100887.13;4947805;28;102768;-56
2021/07/12 01:13:15;;;;;;;7.82;7.22;;;;;;;22.55;73.62;100898.91;4949874;22;102837;-56
2021/07/12 01:15:49;;;;;;;7.82;7.13;;;;;;;22.54;73.96;100900.06;4927645;28;103847;-56
2021/07/12 02:14:06;;;;;;;7.55;7.00;;;;;;;22.51;74.04;100873.03;4907732;28;103423;-56
2021/07/12 02:16:36;;;;;;;7.90;7.30;;;;;;;22.51;73.80;100870.25;4907156;28;102224;-56
2021/07/12 03:11:56;;;;;;;7.73;7.03;;;;;;;22.49;73.91;100889.19;4915143;22;102852;-56
2021/07/12 03:14:31;;;;;;;8.15;7.55;;;;;;;22.49;74.17;100886.41;4949967;28;102233;-56
2021/07/12 03:17:00;;;;;;;7.55;6.85;;;;;;;22.49;74.08;100894.75;4926305;28;102148;-56
2021/07/12 03:19:30;;;;;;;7.78;7.07;;;;;;;22.51;74.11;100884.13;4948492;28;102420;-56
2021/07/12 03:22:00;;;;;;;7.88;7.18;;;;;;;22.50;74.23;100888.03;4947366;28;102841;-56
2021/07/12 03:24:28;;;;;;;7.15;6.65;;;;;;;22.51;74.30;100889.66;4946514;28;102376;-57
2021/07/12 03:26:57;;;;;;;;;;;;;;;22.51;74.13;100895.22;4945321;28;102575;-56
2021/07/12 05:13:09;;;;;;;7.68;7.07;;;;;;;22.68;74.21;100894.13;4907195;28;104312;-56
2021/07/12 05:15:37;;;;;;;7.63;7.03;;;;;;;22.68;74.15;100900.47;4905365;28;103935;-56
2021/07/12 06:10:28;;;;;;;7.32;6.72;;;;;;;22.95;73.54;100921.19;4899575;28;103607;-56
2021/07/12 07:10:37;;;;;;;8.37;7.57;;;;;;;23.13;72.88;100930.03;4913540;23;103462;-56
2021/07/12 08:11:26;;;;;;;8.82;8.07;;;;;;;23.35;72.12;100911.22;4902774;28;102778;-57
2021/07/12 09:09:58;;;;;;;12.37;11.17;;;;;;;23.42;70.97;100889.22;4919847;23;102994;-57
2021/07/12 09:12:38;;;;;;;12.05;11.05;;;;;;;23.41;70.84;100887.59;4924954;28;102612;-58
2021/07/12 10:10:54;;;;;;;11.95;10.95;;;;;;;23.40;71.65;100869.31;4905355;28;102735;-56
2021/07/12 10:13:21;;;;;;;14.18;12.95;;;;;;;23.37;71.48;100876.38;4901208;28;102027;-56
2021/07/12 11:07:47;;;;;;;15.43;14.13;;;;;;;23.31;71.90;100849.22;4916593;22;102819;-56
2021/07/12 11:10:22;;;;;;;15.13;13.93;;;;;;;23.32;71.44;100851.63;4943149;28;102105;-56
2021/07/12 11:12:52;;;;;;;15.52;14.23;;;;;;;23.32;71.52;100848.06;4935788;28;102157;-56
2021/07/12 11:15:29;;;;;;;15.82;14.32;;;;;;;23.33;71.43;100858.00;4943386;28;103881;-56
2021/07/12 11:18:09;;;;;;;16.30;14.90;;;;;;;23.30;72.00;100859.53;4945118;28;103148;-56
2021/07/12 13:08:08;;;;;;;;;;;;;;;23.18;72.09;100752.09;4954484;22;102654;-56
2021/07/12 13:10:35;;;;;;;17.33;15.93;;;;;;;23.21;71.97;100751.38;4943701;28;102473;-56
2021/07/12 13:13:03;;;;;;;17.08;15.68;;;;;;;23.20;71.97;100747.00;4925989;28;103741;-56
2021/07/12 13:48:39;;;;;;;18.25;16.27;;;;;;;23.15;72.38;100719.53;4980226;22;102395;-55
2021/07/12 13:51:05;;;;;;;17.20;15.60;;;;;;;23.14;72.12;100720.66;4937514;28;103342;-55
2021/07/12 13:53:32;;;;;;;17.95;16.10;;;;;;;23.12;72.36;100725.78;4944246;28;103899;-56
2021/07/12 13:55:59;;;;;;;17.38;15.88;;;;;;;23.12;72.46;100714.69;4943102;28;103904;-56
2021/07/12 13:58:25;;;;;;;17.13;15.63;;;;;;;23.12;72.33;100717.44;4952429;28;102897;-56
2021/07/12 14:00:52;;;;;;;17.17;15.65;;;;;;;23.11;72.36;100721.38;4941476;28;102598;-58
2021/07/12 14:03:18;;;;;;;16.80;15.40;;;;;;;23.11;72.19;100726.13;4938828;28;103718;-56
2021/07/12 14:05:47;;;;;;;18.27;16.67;;;;;;;23.11;72.21;100723.34;4941494;28;102566;-56
2021/07/12 14:08:13;;;;;;;16.85;15.52;;;;;;;23.09;72.24;100715.38;4928675;28;102210;-56
2021/07/12 14:10:40;;;;;;;17.30;15.70;;;;;;;23.10;72.37;100727.28;4946493;28;103066;-55
2021/07/12 14:13:06;;;;;;;17.67;16.23;;;;;;;23.08;72.17;100724.88;4948085;28;104190;-55
2021/07/12 14:15:33;;;;;;;17.40;15.90;;;;;;;23.09;72.16;100728.47;4947480;28;103483;-56
2021/07/12 14:17:59;;;;;;;17.00;15.50;;;;;;;23.09;72.46;100725.69;4945264;28;102534;-55
2021/07/12 14:20:26;;;;;;;16.70;15.20;;;;;;;23.12;71.85;100730.53;4944661;28;102504;-58
2021/07/12 14:22:54;;;;;;;11.90;10.85;;;;;;;23.20;70.04;100724.00;4943089;28;103675;-55
2021/07/12 14:25:21;;;;;;;13.37;12.13;;;;;;;23.19;70.40;100739.06;4941946;28;102340;-55
2021/07/12 14:27:47;;;;;;;13.45;12.35;;;;;;;23.15;70.79;100730.63;4946699;28;102701;-55
2021/07/12 14:30:15;;;;;;;16.10;14.80;;;;;;;23.15;71.37;100741.72;4950327;28;103283;-56
2021/07/12 14:32:41;;;;;;;14.82;13.65;;;;;;;23.16;71.58;100737.78;4947335;28;104040;-59
2021/07/12 14:35:08;;;;;;;14.75;13.52;;;;;;;23.16;71.68;100735.00;4948556;28;104624;-55
2021/07/12 14:37:35;;;;;;;16.65;15.15;;;;;;;23.16;71.57;100748.09;4954776;28;102655;-55
2021/07/12 14:40:05;;;;;;;15.60;14.30;;;;;;;23.15;72.32;100746.44;4951399;28;102289;-55
2021/07/12 14:42:32;;;;;;;15.88;14.57;;;;;;;23.14;72.18;100755.94;4944444;28;103882;-56
2021/07/12 14:44:59;;;;;;;17.05;15.50;;;;;;;23.14;71.77;100756.75;4935274;28;102735;-56
2021/07/12 14:47:25;;;;;;;17.38;15.80;;;;;;;23.14;72.02;100755.94;4946243;28;102747;-55
2021/07/12 14:49:52;;;;;;;18.15;16.55;;;;;;;23.14;72.03;100761.50;4942502;28;103239;-55
2021/07/12 14:52:19;;;;;;;19.20;17.08;;;;;;;23.13;72.16;100762.66;4939387;28;103672;-55
2021/07/12 14:54:45;;;;;;;16.83;15.40;;;;;;;23.14;71.97;100762.31;4946316;28;102597;-55
2021/07/12 14:57:14;;;;;;;18.02;16.52;;;;;;;23.14;72.14;100762.31;4946212;28;102512;-55
2021/07/12 14:59:40;;;;;;;17.10;15.53;;;;;;;23.13;71.95;100759.91;4949077;28;102524;-55
2021/07/12 15:02:07;;;;;;;17.73;16.13;;;;;;;23.14;71.58;100756.75;4937370;28;104013;-55
2021/07/12 15:04:34;;;;;;;16.90;15.57;;;;;;;23.14;71.89;100756.75;4946651;28;102712;-55
2021/07/12 15:07:01;;;;;;;17.25;15.80;;;;;;;23.14;71.87;100751.19;4944112;28;103965;-55
2021/07/12 15:09:28;;;;;;;17.55;16.10;;;;;;;23.13;71.94;100749.59;4942806;28;102141;-56
2021/07/12 15:11:54;;;;;;;17.45;15.88;;;;;;;23.13;72.01;100746.81;4942668;28;103781;-55
2021/07/12 15:14:22;;;;;;;18.08;16.58;;;;;;;23.13;72.07;100735.72;4928607;28;102281;-55
2021/07/12 15:16:49;;;;;;;18.20;16.40;;;;;;;23.12;72.01;100742.44;4944893;28;102453;-55
2021/07/12 15:19:15;;;;;;;17.60;16.00;;;;;;;23.11;71.97;100735.25;4944195;28;103084;-55
2021/07/12 15:21:43;;;;;;;18.00;16.30;;;;;;;23.12;72.08;100734.09;4940400;28;103867;-55
2021/07/12 15:24:09;;;;;;;17.58;15.98;;;;;;;23.10;72.36;100733.66;4936232;28;102737;-55
2021/07/12 15:26:37;;;;;;;17.77;16.38;;;;;;;23.10;72.38;100728.09;4928002;28;102449;-55
2021/07/12 15:29:04;;;;;;;17.63;16.10;;;;;;;23.10;72.34;100733.66;4946306;28;102242;-55
2021/07/12 15:31:31;;;;;;;17.98;16.48;;;;;;;23.09;72.33;100726.50;4944881;28;103744;-56
2021/07/12 15:33:58;;;;;;;17.80;16.33;;;;;;;23.08;72.21;100735.97;4939764;28;102401;-55
2021/07/12 15:36:24;;;;;;;18.08;16.58;;;;;;;23.08;72.33;100741.53;4940689;28;102474;-55
2021/07/12 15:38:51;;;;;;;17.70;16.23;;;;;;;23.08;72.15;100730.44;4946257;28;102090;-56
2021/07/12 15:41:18;;;;;;;17.08;15.57;;;;;;;23.07;72.15;100723.25;4946432;28;104086;-55
2021/07/12 15:43:45;;;;;;;17.85;16.25;;;;;;;23.06;72.20;100727.19;4932590;28;103829;-56
2021/07/12 15:46:15;;;;;;;17.85;16.35;;;;;;;23.06;72.14;100727.19;4946335;28;102368;-56
2021/07/12 15:48:43;;;;;;;18.40;16.25;;;;;;;23.07;71.96;100730.78;4948331;28;102823;-56
2021/07/12 15:51:10;;;;;;;17.63;16.02;;;;;;;23.06;72.29;100727.19;4944766;28;103958;-55
2021/07/12 15:53:36;;;;;;;17.88;16.38;;;;;;;23.06;72.23;100726.41;4945683;28;102549;-56
2021/07/12 15:56:03;;;;;;;17.40;16.00;;;;;;;23.06;72.29;100731.94;4931862;28;102114;-55
2021/07/12 15:58:32;;;;;;;17.05;15.57;;;;;;;23.06;72.19;100729.16;4945120;28;103474;-55
2021/07/12 16:00:58;;;;;;;17.45;15.95;;;;;;;23.06;72.07;100732.75;4947001;28;103661;-55
2021/07/12 16:03:25;;;;;;;19.63;16.30;;;;;;;23.06;71.23;100732.75;4945152;28;102755;-55
2021/07/12 16:05:53;;;;;;;17.25;15.65;;;;;;;23.05;72.03;100742.25;4943988;28;102243;-56
2021/07/12 16:08:20;;;;;;;15.77;14.47;;;;;;;23.06;72.22;100743.03;4945392;28;102223;-56
2021/07/12 16:10:47;;;;;;;16.20;14.80;;;;;;;23.05;72.33;100742.25;4943653;28;103845;-56
2021/07/12 16:13:13;;;;;;;16.77;15.38;;;;;;;23.04;72.26;100746.16;4937402;28;103408;-56
2021/07/12 16:15:41;;;;;;;16.67;15.18;;;;;;;23.05;72.11;100742.25;4940303;28;102372;-55
2021/07/12 16:18:11;;;;;;;16.63;15.23;;;;;;;23.03;72.35;100739.00;4946723;28;102862;-56
2021/07/12 16:20:38;;;;;;;17.13;15.52;;;;;;;23.04;72.30;100743.38;4941406;28;103940;-55
2021/07/12 16:23:06;;;;;;;15.45;14.20;;;;;;;23.04;72.29;100746.16;4939325;28;102332;-55
2021/07/12 16:25:33;;;;;;;;;;;;;;;23.05;72.21;100758.91;4940658;28;102506;-55
2021/07/12 16:27:59;;;;;;;16.00;14.55;;;;;;;23.03;72.17;100761.22;4947376;28;102232;-56
2021/07/12 16:30:26;;;;;;;15.73;14.32;;;;;;;23.04;72.36;100768.38;4947463;28;103702;-55
2021/07/12 16:32:53;;;;;;;16.23;14.82;;;;;;;23.03;72.43;100773.13;4953223;28;102566;-56
2021/07/12 16:35:19;;;;;;;15.57;14.38;;;;;;;23.03;72.27;100772.31;4943568;28;102498;-55
2021/07/12 16:37:46;;;;;;;15.18;13.98;;;;;;;23.01;72.52;100780.19;4950308;28;102226;-56
2021/07/12 16:40:15;;;;;;;15.48;14.18;;;;;;;23.02;72.45;100792.91;4944130;28;103700;-55
2021/07/12 16:42:43;;;;;;;15.95;14.55;;;;;;;23.01;72.46;100792.09;4947389;28;103890;-56
2021/07/12 16:45:11;;;;;;;15.10;13.90;;;;;;;23.00;72.35;100790.47;4947020;28;102442;-55
2021/07/12 16:47:38;;;;;;;14.70;13.50;;;;;;;23.01;72.59;100791.31;4949654;28;103856;-55
2021/07/12 16:50:06;;;;;;;15.63;14.05;;;;;;;23.00;72.45;100789.66;4943517;28;103953;-55
2021/07/12 16:52:33;;;;;;;16.70;15.32;;;;;;;22.99;72.58;100788.06;4947679;28;102368;-56
2021/07/12 16:54:59;;;;;;;15.50;14.20;;;;;;;22.99;72.56;100790.84;4930685;28;102755;-55
2021/07/12 16:57:27;;;;;;;15.73;14.43;;;;;;;22.99;72.71;100796.38;4953318;28;102397;-55
2021/07/12 16:59:54;;;;;;;15.10;13.90;;;;;;;22.99;72.59;100793.63;4946305;28;104055;-56
2021/07/12 17:02:21;;;;;;;15.38;14.00;;;;;;;22.98;72.44;100801.13;4948768;28;102512;-55
2021/07/12 17:04:47;;;;;;;15.32;13.90;;;;;;;22.99;72.62;100810.25;4947975;28;102583;-56
2021/07/12 17:07:14;;;;;;;14.68;13.48;;;;;;;23.00;72.72;100798.00;4937145;28;102320;-56
2021/07/12 17:09:40;;;;;;;15.10;13.80;;;;;;;22.99;72.61;100799.97;4947290;28;104101;-56
2021/07/12 17:12:28;;;;;;;14.45;13.02;;;;;;;23.00;72.58;100803.53;4954255;28;102921;-56
2021/07/12 17:14:55;;;;;;;14.73;13.50;;;;;;;23.00;72.74;100817.41;4945599;28;102225;-55
2021/07/12 17:17:23;;;;;;;14.70;13.50;;;;;;;23.01;72.62;100817.09;4947843;28;102877;-55
2021/07/12 17:19:50;;;;;;;31.35;13.80;;;;;;;23.03;72.76;100817.53;4940822;28;103899;-55
2021/07/12 17:22:18;;;;;;;14.45;13.05;;;;;;;23.04;72.72;100812.78;4947288;28;102517;-56
2021/07/12 17:24:45;;;;;;;13.57;12.38;;;;;;;23.05;72.71;100814.41;4944441;28;102236;-55
2021/07/12 17:27:13;;;;;;;14.77;13.48;;;;;;;23.04;72.81;100815.56;4949953;28;102816;-54
2021/07/12 17:29:41;;;;;;;13.73;12.63;;;;;;;23.05;72.61;100813.59;4948094;28;103920;-55
2021/07/12 17:32:09;;;;;;;15.57;13.50;;;;;;;23.03;72.63;100803.66;4929722;28;103448;-55
2021/07/12 17:34:36;;;;;;;14.68;13.38;;;;;;;23.03;72.85;100806.41;4930184;28;102457;-55
2021/07/12 17:37:03;;;;;;;13.73;12.43;;;;;;;23.03;72.84;100811.97;4946897;28;102464;-55
2021/07/12 17:39:30;;;;;;;14.02;12.93;;;;;;;23.02;72.84;100802.03;4949392;28;103909;-56
2021/07/12 17:41:57;;;;;;;14.35;13.05;;;;;;;23.02;72.89;100809.56;4946798;28;102439;-56
2021/07/12 17:44:23;;;;;;;13.60;12.40;;;;;;;23.01;72.92;100813.50;4940736;28;102570;-55
2021/07/12 17:46:51;;;;;;;13.80;12.68;;;;;;;23.00;73.08;100811.88;4961983;28;102399;-55
2021/07/12 17:49:21;;;;;;;14.07;12.87;;;;;;;23.00;73.03;100809.91;4944213;28;107014;-56
2021/07/12 17:51:47;;;;;;;13.32;12.10;;;;;;;22.99;73.22;100811.06;4949473;28;102531;-55
2021/07/12 17:54:14;;;;;;;13.32;12.23;;;;;;;22.98;73.02;100815.00;4945502;28;102701;-55
2021/07/12 17:56:40;;;;;;;13.55;12.45;;;;;;;22.99;72.99;100810.25;4947910;28;102827;-55
2021/07/12 17:59:07;;;;;;;14.15;12.95;;;;;;;22.98;73.06;100820.56;4941484;28;104064;-55
2021/07/12 18:01:34;;;;;;;13.07;12.07;;;;;;;22.99;72.99;100826.91;4942819;28;102161;-55
2021/07/12 18:04:02;;;;;;;13.20;12.10;;;;;;;22.98;73.03;100825.31;4944089;28;102634;-55
2021/07/12 18:06:29;;;;;;;12.80;11.80;;;;;;;22.98;73.08;100808.66;4946309;28;102668;-55
2021/07/12 18:08:57;;;;;;;13.55;12.35;;;;;;;22.97;73.10;100824.50;4946102;28;103876;-55
2021/07/12 18:11:24;;;;;;;;;;;;;;;22.97;73.02;100818.13;4944196;28;102292;-56
2021/07/12 18:13:53;;;;;;;12.73;11.52;;;;;;;22.96;73.25;100827.63;4941426;28;102634;-55
2021/07/12 18:16:21;;;;;;;12.88;11.85;;;;;;;22.97;73.15;100826.44;4947507;28;102174;-55
2021/07/12 18:18:52;;;;;;;12.60;11.60;;;;;;;22.96;72.92;100830.41;4941114;28;104133;-55
2021/07/12 18:21:21;;;;;;;12.95;11.85;;;;;;;22.96;73.22;100827.63;4946057;28;102400;-55
2021/07/12 18:23:48;;;;;;;12.98;11.80;;;;;;;22.96;73.12;100838.72;4945059;28;102101;-56
2021/07/12 18:26:18;;;;;;;13.48;12.27;;;;;;;22.95;73.05;100835.13;4945509;28;102558;-56
2021/07/12 18:28:45;;;;;;;13.30;12.10;;;;;;;22.96;73.22;100847.03;4942749;28;104159;-55
2021/07/12 18:31:11;;;;;;;12.98;11.77;;;;;;;22.95;73.12;100848.22;4937588;28;104023;-55
2021/07/12 18:33:38;;;;;;;12.50;11.45;;;;;;;22.95;73.60;100851.00;4930633;28;102559;-55
2021/07/12 18:36:06;;;;;;;12.90;11.80;;;;;;;22.94;73.37;100852.16;4946684;28;102300;-56
2021/07/12 18:38:34;;;;;;;12.65;11.65;;;;;;;22.95;73.15;100851.00;4942138;28;103985;-56
2021/07/12 18:41:01;;;;;;;12.30;11.30;;;;;;;22.97;73.15;100851.44;4944935;28;104304;-55
2021/07/12 18:43:28;;;;;;;12.02;11.02;;;;;;;22.98;73.29;100853.88;4944750;28;102583;-55
2021/07/12 18:45:55;;;;;;;12.60;11.52;;;;;;;22.99;73.31;100849.13;4945337;28;102390;-55
2021/07/12 18:48:21;;;;;;;11.98;11.05;;;;;;;22.99;73.29;100854.66;4949142;28;103862;-55
2021/07/12 18:50:52;;;;;;;12.40;11.40;;;;;;;23.00;73.16;100850.72;4943014;28;102529;-55
2021/07/12 18:53:20;;;;;;;12.50;11.50;;;;;;;22.99;73.30;100843.56;4946215;28;102708;-55
2021/07/12 18:55:50;;;;;;;11.93;10.93;;;;;;;22.99;73.27;100855.47;4927506;28;102799;-56
2021/07/12 18:58:16;;;;;;;11.37;10.47;;;;;;;22.99;73.31;100860.22;4946416;28;103952;-55
2021/07/12 19:00:43;;;;;;;11.88;10.98;;;;;;;22.98;73.40;100853.88;4940881;28;102315;-56
2021/07/12 19:03:10;;;;;;;12.65;11.07;;;;;;;22.97;73.21;100857.81;4931787;28;102386;-56
2021/07/12 19:05:37;;;;;;;11.82;10.80;;;;;;;22.98;73.05;100858.63;4947610;28;102529;-55
2021/07/12 19:08:04;;;;;;;12.13;11.02;;;;;;;22.97;73.34;100857.81;4940881;28;103941;-55
2021/07/12 19:10:31;;;;;;;11.48;10.57;;;;;;;22.97;73.25;100848.66;4923754;28;102293;-55
2021/07/12 19:13:00;;;;;;;11.70;10.77;;;;;;;22.95;73.24;100849.00;4946339;28;102620;-55
2021/07/12 19:15:26;;;;;;;11.82;10.82;;;;;;;22.95;73.15;100854.56;4944740;28;103078;-55
2021/07/12 19:18:03;;;;;;;11.93;11.00;;;;;;;22.96;73.35;100852.59;4938173;28;104041;-55
2021/07/12 19:20:31;;;;;;;11.95;11.02;;;;;;;22.95;73.26;100845.44;4950419;28;102184;-57
2021/07/12 19:22:58;;;;;;;12.07;11.07;;;;;;;22.94;73.21;100841.88;4944282;28;102758;-56
2021/07/12 19:25:27;;;;;;;12.73;10.80;;;;;;;22.97;72.90;100832.84;4946574;28;102709;-55
2021/07/12 19:27:55;;;;;;;18.88;11.23;;;;;;;23.01;72.87;100841.25;4948049;28;102743;-57
2021/07/12 19:30:26;;;;;;;15.15;10.77;;;;;;;23.00;72.69;100840.44;4942464;28;102704;-57
2021/07/12 19:32:55;;;;;;;12.52;10.88;;;;;;;22.98;72.64;100830.88;4947056;28;102380;-56
2021/07/12 19:35:23;;;;;;;11.45;10.45;;;;;;;22.97;72.55;100829.22;4949146;28;103441;-57
2021/07/12 19:37:52;;;;;;;12.18;11.18;;;;;;;22.95;72.23;100826.00;4952977;28;103039;-57
2021/07/12 19:40:20;;;;;;;18.83;11.00;;;;;;;22.93;71.61;100822.78;4944014;28;102779;-53
2021/07/12 19:42:46;;;;;;;13.13;11.48;;;;;;;22.94;71.97;100830.75;4927167;28;102734;-56
2021/07/12 19:45:16;;;;;;;17.70;11.68;;;;;;;22.93;72.33;100836.66;4948082;28;103954;-55
2021/07/12 19:47:46;;;;;;;11.68;10.48;;;;;;;22.94;72.57;100829.97;4947539;28;103972;-55
2021/07/12 19:50:15;;;;;;;11.88;10.70;;;;;;;22.93;72.94;100826.34;4943606;28;103344;-55
2021/07/12 19:52:42;;;;;;;12.07;10.85;;;;;;;22.95;72.84;100842.66;4950810;28;102718;-56
2021/07/12 19:55:10;;;;;;;12.85;11.43;;;;;;;22.93;72.95;100839.41;4951419;28;102695;-55
2021/07/12 19:57:38;;;;;;;12.73;11.53;;;;;;;22.93;73.27;100834.66;4929844;28;103917;-55
2021/07/12 20:00:06;;;;;;;25.90;11.75;;;;;;;22.94;72.88;100829.97;4945908;28;103517;-55
2021/07/12 20:02:32;;;;;;;161.27;20.67;;;;;;;22.97;73.08;100838.38;4946015;28;102589;-67
2021/07/12 20:05:00;;;;;;;13.73;10.77;;;;;;;22.98;72.94;100839.19;4948504;28;102756;-72
2021/07/12 20:07:27;;;;;;;12.90;11.05;;;;;;;22.97;72.91;100837.56;4941924;28;103664;-72
2021/07/12 20:10:06;;;;;;;16.70;11.52;;;;;;;22.96;72.96;100845.06;4947803;28;102890;-71
2021/07/12 20:12:36;;;;;;;13.27;11.65;;;;;;;22.96;72.90;100849.81;4943605;28;102197;-71
2021/07/12 20:15:05;;;;;;;14.77;10.93;;;;;;;22.94;73.13;100855.75;4950030;28;102197;-72
2021/07/12 20:17:32;;;;;;;12.50;11.15;;;;;;;22.95;73.18;100843.47;4949938;28;103980;-72
2021/07/12 20:20:06;;;;;;;15.02;11.60;;;;;;;22.95;73.20;100837.13;4940602;28;103206;-73
2021/07/12 20:22:37;;;;;;;18.40;12.18;;;;;;;22.94;73.15;100835.50;4930874;28;104940;-72
2021/07/12 20:25:07;;;;;;;38.97;13.00;;;;;;;22.94;73.19;100829.97;4950024;28;102974;-73
2021/07/12 20:27:34;;;;;;;11.57;10.48;;;;;;;22.93;72.98;100822.78;4950283;28;103841;-72
2021/07/12 20:30:04;;;;;;;15.07;11.05;;;;;;;22.93;73.20;100828.31;4949190;28;102464;-72
2021/07/12 20:32:30;;;;;;;13.60;11.02;;;;;;;22.93;73.20;100839.41;4946108;28;102371;-72
2021/07/12 20:34:57;;;;;;;15.05;11.00;;;;;;;22.92;73.29;100833.06;4939751;28;102345;-72
2021/07/12 20:37:25;;;;;;;13.50;11.10;;;;;;;22.93;73.24;100847.75;4950000;28;104209;-72
2021/07/12 20:39:51;;;;;;;14.57;10.53;;;;;;;22.92;73.38;100851.69;4951236;28;102879;-73
2021/07/12 20:42:18;;;;;;;14.65;11.05;;;;;;;22.92;73.20;100848.91;4948318;28;102432;-71
2021/07/12 20:44:48;;;;;;;12.73;10.63;;;;;;;22.92;73.11;100860.00;4945304;28;102752;-71
2021/07/12 20:47:15;;;;;;;12.15;10.73;;;;;;;22.93;73.38;100844.97;4940552;28;104068;-72
2021/07/12 20:49:42;;;;;;;11.95;10.73;;;;;;;22.91;73.43;100847.28;4937094;28;102164;-73
2021/07/12 20:52:10;;;;;;;11.60;10.50;;;;;;;22.91;73.20;100848.06;4939553;28;102602;-72
2021/07/12 20:54:38;;;;;;;11.45;10.35;;;;;;;22.91;73.31;100850.06;4947329;28;102519;-72
2021/07/12 20:57:05;;;;;;;11.38;10.38;;;;;;;22.91;73.14;100863.94;4947198;28;102694;-73
2021/07/12 20:59:31;;;;;;;11.55;10.45;;;;;;;22.92;73.60;100871.13;4949925;28;102397;-73
2021/07/12 21:01:58;;;;;;;11.15;10.05;;;;;;;22.91;73.42;100875.03;4948516;28;102617;-73
2021/07/12 21:04:26;;;;;;;12.70;10.50;;;;;;;22.91;73.47;100881.38;4947892;28;102360;-73
2021/07/12 21:06:54;;;;;;;13.10;10.40;;;;;;;22.92;73.37;100887.75;4949519;28;103854;-73
2021/07/12 21:09:22;;;;;;;13.75;10.85;;;;;;;22.92;73.37;100876.66;4946776;28;102516;-73
2021/07/12 21:12:03;;;;;;;14.90;10.35;;;;;;;22.91;73.31;100869.47;4942378;28;102189;-72
2021/07/12 21:14:32;;;;;;;11.45;10.35;;;;;;;22.91;73.40;100863.94;4948906;28;102301;-73
2021/07/12 21:16:59;;;;;;;12.32;10.98;;;;;;;22.91;73.38;100858.38;4944038;28;104019;-73
2021/07/12 21:19:25;;;;;;;12.15;10.95;;;;;;;22.91;73.22;100863.94;4948278;28;106171;-72
2021/07/12 21:21:52;;;;;;;12.52;10.90;;;;;;;22.92;73.18;100860.00;4949027;28;102296;-72
2021/07/12 21:24:18;;;;;;;11.48;10.43;;;;;;;22.92;73.29;100848.91;4945389;28;102594;-73
2021/07/12 21:26:45;;;;;;;11.63;9.82;;;;;;;22.90;73.33;100843.69;4945758;28;102711;-73
2021/07/12 21:29:13;;;;;;;11.02;10.02;;;;;;;22.92;73.24;100848.91;4937959;28;104036;-73
2021/07/12 21:31:39;;;;;;;11.50;10.35;;;;;;;22.92;73.41;100851.69;4948960;28;102534;-73
2021/07/12 21:34:06;;;;;;;12.13;10.27;;;;;;;22.91;73.49;100855.59;4947000;28;103491;-72
2021/07/12 21:36:33;;;;;;;10.93;9.93;;;;;;;22.90;73.28;100854.78;4924117;28;103886;-73
2021/07/12 21:38:59;;;;;;;10.85;9.85;;;;;;;22.92;73.57;100862.78;4943881;28;104311;-73
2021/07/12 21:41:26;;;;;;;11.15;10.07;;;;;;;22.91;73.52;100859.19;4941431;28;103785;-73
2021/07/12 21:43:53;;;;;;;12.05;10.20;;;;;;;22.92;73.39;100866.38;4932040;28;102845;-71
2021/07/12 21:46:21;;;;;;;11.32;10.13;;;;;;;22.92;73.31;100871.13;4921608;28;103866;-71
2021/07/12 21:48:48;;;;;;;11.03;9.93;;;;;;;22.92;73.56;100871.13;4943747;28;102462;-71
2021/07/12 21:51:17;;;;;;;11.85;10.68;;;;;;;22.91;73.36;100875.03;4937525;28;103014;-72
2021/07/12 21:53:44;;;;;;;11.20;10.20;;;;;;;22.92;73.57;100873.88;4947061;28;102208;-71
2021/07/12 21:56:11;;;;;;;11.38;10.27;;;;;;;22.92;73.64;100865.56;4940609;28;103660;-71
2021/07/12 21:58:39;;;;;;;12.43;10.80;;;;;;;22.92;73.63;100871.13;4926878;28;103954;-71
2021/07/12 22:01:06;;;;;;;13.27;10.65;;;;;;;22.91;73.41;100863.94;4947709;28;102459;-71
2021/07/12 22:03:34;;;;;;;11.48;10.38;;;;;;;22.91;73.43;100866.69;4956672;28;102287;-71
2021/07/12 22:06:02;;;;;;;13.32;10.90;;;;;;;22.91;73.59;100864.72;4949570;28;102841;-71
2021/07/12 22:08:29;;;;;;;11.15;10.10;;;;;;;22.91;73.68;100872.25;4949440;28;102512;-71
2021/07/12 22:11:00;;;;;;;11.75;10.75;;;;;;;22.91;73.58;100863.94;4948127;28;102445;-71
2021/07/12 22:13:27;;;;;;;11.98;10.77;;;;;;;22.89;73.52;100860.69;4946593;28;102882;-72
2021/07/12 22:15:57;;;;;;;11.93;10.82;;;;;;;22.89;73.44;100871.78;4952873;28;103106;-70
2021/07/12 22:18:26;;;;;;;12.05;10.85;;;;;;;22.89;73.42;100867.03;4944958;28;102422;-71
2021/07/12 22:20:54;;;;;;;11.80;10.70;;;;;;;22.88;73.60;100865.44;4943321;28;102681;-70
2021/07/12 22:23:23;;;;;;;11.95;10.85;;;;;;;22.89;73.67;100878.13;4945834;28;102783;-70
2021/07/12 22:25:51;;;;;;;12.57;10.35;;;;;;;22.88;73.58;100873.75;4944216;28;102820;-71
2021/07/12 22:28:19;;;;;;;12.00;10.90;;;;;;;22.89;73.58;100889.22;4944339;28;102157;-70
2021/07/12 22:30:48;;;;;;;12.20;10.90;;;;;;;22.89;73.53;100891.22;4943088;28;102582;-71
2021/07/12 22:33:16;;;;;;;12.35;11.27;;;;;;;22.89;73.70;100877.34;4943774;28;102882;-71
2021/07/12 22:35:43;;;;;;;13.10;11.80;;;;;;;22.89;73.55;100882.88;4946462;28;103880;-70
2021/07/12 22:38:11;;;;;;;12.00;10.90;;;;;;;22.89;73.64;100883.69;4945571;28;102306;-70
2021/07/12 22:40:38;;;;;;;11.82;10.68;;;;;;;22.88;73.57;100881.28;4946838;28;104399;-70
2021/07/12 22:43:06;;;;;;;12.07;10.77;;;;;;;22.89;73.60;100893.97;4948265;28;102256;-70
2021/07/12 22:45:33;;;;;;;11.37;10.37;;;;;;;22.88;73.65;100892.38;4946873;28;104010;-70
2021/07/12 22:48:01;;;;;;;11.90;10.77;;;;;;;22.86;73.47;100894.69;4947742;28;102340;-70
2021/07/12 22:50:35;;;;;;;11.88;10.70;;;;;;;22.87;73.56;100896.31;4948960;28;102198;-71
2021/07/12 22:53:04;;;;;;;11.82;10.13;;;;;;;22.87;73.75;100899.09;4948844;28;103158;-70
2021/07/12 22:55:33;;;;;;;12.48;11.27;;;;;;;22.86;73.71;100900.22;4950090;28;103398;-70
2021/07/12 22:58:00;;;;;;;12.30;11.10;;;;;;;22.86;73.83;100900.22;4945459;28;102358;-71
2021/07/12 23:00:27;;;;;;;12.43;11.15;;;;;;;22.86;73.61;100905.78;4947688;28;102823;-70
2021/07/12 23:02:55;;;;;;;13.00;11.75;;;;;;;22.85;73.70;100904.97;4948248;28;102167;-70
2021/07/12 23:05:21;;;;;;;12.18;11.07;;;;;;;22.86;73.67;100905.78;4948162;28;103909;-70
2021/07/12 23:07:48;;;;;;;12.05;10.85;;;;;;;22.85;73.76;100904.16;4947531;28;102416;-70
2021/07/12 23:10:16;;;;;;;12.23;11.07;;;;;;;22.84;73.78;100895.03;4947451;28;103228;-70
2021/07/12 23:12:45;;;;;;;12.85;11.55;;;;;;;22.85;73.92;100893.06;4948128;28;102490;-71
2021/07/12 23:15:13;;;;;;;12.50;11.40;;;;;;;22.85;73.94;100898.63;4940578;28;102919;-71
2021/07/12 23:17:40;;;;;;;12.18;11.07;;;;;;;22.85;73.62;100901.41;4943716;28;105981;-71
2021/07/12 23:20:09;;;;;;;13.23;11.93;;;;;;;22.84;73.71;100903.38;4945435;28;102287;-70
2021/07/12 23:22:38;;;;;;;12.70;11.13;;;;;;;22.84;73.71;100908.13;4949870;28;103092;-70
2021/07/12 23:25:06;;;;;;;11.45;10.45;;;;;;;22.83;73.75;100901.75;4946178;28;104229;-71
2021/07/12 23:27:33;;;;;;;12.80;11.55;;;;;;;22.83;73.81;100901.75;4944479;28;102310;-70
2021/07/12 23:30:01;;;;;;;13.55;12.15;;;;;;;22.83;73.72;100900.91;4945152;28;102483;-71
2021/07/12 23:32:28;;;;;;;14.80;12.18;;;;;;;22.82;73.74;100894.56;4943669;28;102621;-71
2021/07/12 23:34:55;;;;;;;12.93;11.73;;;;;;;22.83;73.80;100895.38;4946297;28;103968;-70
2021/07/12 23:37:21;;;;;;;13.38;11.98;;;;;;;22.83;73.51;100906.47;4947649;28;102062;-70
2021/07/12 23:39:48;;;;;;;12.98;11.77;;;;;;;22.84;73.76;100897.00;4946579;28;102426;-71